Time;durP1;ratioP1;P1;durP2;ratioP2;P2;SDS_P1;SDS_P2;PMS_P1;PMS_P2;Temp;Humidity;BMP_temperature;BMP_pressure;BME280_temperature;BME280_humidity;BME280_pressure;Samples;Min_cycle;Max_cycle;Signal;HPM_P1;HPM_P2
2021/04/20 00:01:00;;;;;;;28.20;19.92;;;5.70;91.00;;;;;;6099462;23;20196;-78
2021/04/20 00:03:27;;;;;;;31.13;20.38;;;5.70;90.90;;;;;;6102872;23;20214;-77
2021/04/20 00:05:53;;;;;;;34.97;22.60;;;5.70;91.20;;;;;;6109839;23;20181;-78
2021/04/20 00:08:21;;;;;;;23.55;18.70;;;5.80;91.30;;;;;;6109477;23;20267;-77
2021/04/20 00:10:47;;;;;;;33.80;20.90;;;5.70;90.90;;;;;;6110990;23;20185;-76
2021/04/20 00:13:14;;;;;;;32.50;21.27;;;5.60;91.00;;;;;;6109877;23;20185;-77
2021/04/20 00:15:41;;;;;;;28.45;20.33;;;5.50;91.20;;;;;;6100783;23;20185;-78
2021/04/20 00:18:08;;;;;;;24.83;19.05;;;5.50;91.80;;;;;;6106021;23;20225;-80
2021/04/20 00:20:36;;;;;;;26.95;18.40;;;5.60;91.90;;;;;;6101939;23;20260;-77
2021/04/20 00:23:05;;;;;;;28.40;19.90;;;5.50;91.90;;;;;;6103707;23;20666;-77
2021/04/20 00:25:31;;;;;;;23.80;19.58;;;5.50;92.00;;;;;;6105528;23;20186;-79
2021/04/20 00:27:58;;;;;;;30.10;20.95;;;5.60;92.10;;;;;;6106197;23;20209;-78
2021/04/20 00:30:25;;;;;;;28.13;19.23;;;5.50;92.00;;;;;;6102894;23;20224;-77
2021/04/20 00:32:52;;;;;;;28.30;20.10;;;5.50;91.90;;;;;;6098604;23;20473;-77
2021/04/20 00:35:18;;;;;;;28.42;20.33;;;5.50;92.10;;;;;;6099069;23;20260;-78
2021/04/20 00:37:45;;;;;;;31.05;21.02;;;5.50;92.10;;;;;;6098813;23;20290;-78
2021/04/20 00:40:14;;;;;;;32.38;20.23;;;5.50;92.10;;;;;;6098745;23;20567;-78
2021/04/20 00:42:53;;;;;;;32.65;20.23;;;5.50;92.20;;;;;;6098356;23;20263;-79
2021/04/20 00:45:22;;;;;;;32.10;22.77;;;5.40;92.30;;;;;;6099241;23;20185;-77
2021/04/20 00:47:50;;;;;;;33.15;21.08;;;5.40;92.60;;;;;;6098316;23;20275;-76
2021/04/20 00:50:17;;;;;;;34.35;22.15;;;5.40;92.80;;;;;;6099484;23;20185;-76
2021/04/20 00:52:44;;;;;;;32.35;21.98;;;5.40;93.00;;;;;;6099116;23;20185;-76
2021/04/20 00:55:11;;;;;;;30.08;21.52;;;5.40;93.20;;;;;;6098659;23;20189;-77
2021/04/20 00:57:38;;;;;;;34.78;21.45;;;5.30;93.20;;;;;;6100401;23;20236;-77
2021/04/20 01:00:07;;;;;;;32.08;21.60;;;5.30;93.50;;;;;;6100216;23;20196;-76
2021/04/20 01:02:33;;;;;;;27.42;21.25;;;5.40;93.50;;;;;;6099029;23;20676;-77
2021/04/20 01:05:00;;;;;;;27.83;20.65;;;5.40;93.50;;;;;;6101372;23;20188;-76
2021/04/20 01:07:28;;;;;;;28.05;20.15;;;5.50;93.60;;;;;;6109118;23;20203;-77
2021/04/20 01:09:55;;;;;;;27.48;19.20;;;5.60;93.60;;;;;;6118749;23;20180;-76
2021/04/20 01:12:21;;;;;;;27.75;20.40;;;5.60;93.60;;;;;;6121543;23;20177;-75
2021/04/20 01:14:48;;;;;;;25.38;18.42;;;5.60;93.60;;;;;;6121291;23;20169;-76
2021/04/20 01:17:14;;;;;;;24.58;18.27;;;5.60;93.00;;;;;;6121972;23;20261;-80
2021/04/20 01:19:43;;;;;;;27.27;19.65;;;5.60;92.90;;;;;;6120250;23;20182;-79
2021/04/20 01:22:14;;;;;;;28.58;19.05;;;5.60;92.60;;;;;;6121677;23;20180;-79
2021/04/20 01:24:41;;;;;;;25.45;18.05;;;5.60;92.30;;;;;;6121678;23;20220;-80
2021/04/20 01:27:08;;;;;;;21.77;16.58;;;5.50;92.20;;;;;;6112200;23;20205;-76
2021/04/20 01:29:34;;;;;;;22.25;17.90;;;5.50;92.00;;;;;;6108630;23;20185;-78
2021/04/20 01:32:01;;;;;;;25.08;18.80;;;5.50;92.00;;;;;;6104417;23;20655;-75
2021/04/20 01:34:28;;;;;;;26.80;17.75;;;5.40;91.90;;;;;;6101702;23;20178;-75
2021/04/20 01:36:55;;;;;;;27.63;19.15;;;5.30;92.20;;;;;;6102882;23;20188;-75
2021/04/20 01:39:21;;;;;;;24.83;18.23;;;5.30;92.30;;;;;;6106848;23;20174;-76
2021/04/20 01:41:50;;;;;;;26.92;19.30;;;5.30;92.40;;;;;;6110621;23;20252;-76
2021/04/20 01:44:17;;;;;;;27.70;19.15;;;5.30;92.60;;;;;;6108704;23;20186;-75
2021/04/20 01:46:44;;;;;;;31.23;20.80;;;5.20;92.80;;;;;;6106950;23;20188;-75
2021/04/20 01:49:11;;;;;;;28.50;19.92;;;5.20;92.70;;;;;;6101959;23;20192;-75
2021/04/20 01:51:38;;;;;;;27.77;18.83;;;5.20;92.80;;;;;;6097812;23;20197;-76
2021/04/20 01:54:05;;;;;;;27.83;19.98;;;5.20;92.50;;;;;;6098461;23;20192;-75
2021/04/20 01:56:32;;;;;;;30.67;22.40;;;5.10;93.00;;;;;;6098314;23;20209;-76
2021/04/20 01:59:00;;;;;;;29.50;19.35;;;5.00;93.00;;;;;;6097882;23;20185;-76
2021/04/20 02:01:28;;;;;;;26.77;19.60;;;5.00;93.00;;;;;;6097510;23;20589;-76
2021/04/20 02:03:55;;;;;;;29.60;20.88;;;4.90;93.10;;;;;;6097865;23;20181;-75
2021/04/20 02:06:24;;;;;;;31.05;21.05;;;4.80;93.30;;;;;;6098552;23;20277;-75
2021/04/20 02:08:51;;;;;;;27.77;20.27;;;4.70;93.50;;;;;;6098164;23;20268;-75
2021/04/20 02:11:20;;;;;;;28.27;20.90;;;4.80;94.00;;;;;;6097967;23;20572;-76
2021/04/20 02:13:47;;;;;;;32.08;20.90;;;4.80;94.10;;;;;;6100781;23;20281;-77
2021/04/20 02:16:16;;;;;;;30.52;21.23;;;4.70;93.80;;;;;;6109100;23;20185;-76
2021/04/20 02:18:45;;;;;;;27.42;18.70;;;4.60;94.10;;;;;;6097870;23;20216;-76
2021/04/20 02:21:13;;;;;;;31.60;22.42;;;4.60;94.20;;;;;;6098562;23;20181;-77
2021/04/20 02:23:41;;;;;;;28.52;20.35;;;4.50;94.70;;;;;;6097841;23;20264;-77
2021/04/20 02:26:10;;;;;;;26.02;18.60;;;4.60;95.00;;;;;;6098373;23;20515;-76
2021/04/20 02:28:36;;;;;;;28.58;19.80;;;4.60;95.10;;;;;;6097852;23;20811;-76
2021/04/20 02:31:06;;;;;;;30.92;19.98;;;4.60;95.30;;;;;;6098247;23;20189;-75
2021/04/20 02:33:34;;;;;;;32.58;21.45;;;4.60;95.40;;;;;;6097739;23;20213;-76
2021/04/20 02:36:01;;;;;;;28.33;20.27;;;4.60;95.50;;;;;;6098545;23;20213;-77
2021/04/20 02:38:28;;;;;;;33.47;22.08;;;4.50;95.60;;;;;;6100755;23;20196;-76
2021/04/20 02:40:56;;;;;;;31.00;21.20;;;4.50;95.80;;;;;;6098652;23;20573;-76
2021/04/20 02:43:23;;;;;;;34.72;21.60;;;4.50;96.00;;;;;;6097068;23;20641;-76
2021/04/20 02:45:52;;;;;;;33.70;21.38;;;4.50;96.20;;;;;;6098913;23;20236;-77
2021/04/20 02:48:19;;;;;;;30.15;21.52;;;4.40;96.20;;;;;;6098019;23;20276;-77
2021/04/20 02:50:48;;;;;;;29.85;20.50;;;4.30;96.20;;;;;;6098351;23;20200;-78
2021/04/20 02:53:16;;;;;;;27.73;20.15;;;4.30;96.50;;;;;;6097752;23;20224;-78
2021/04/20 02:55:43;;;;;;;31.23;21.52;;;4.30;96.60;;;;;;6098654;23;20232;-76
2021/04/20 02:58:15;;;;;;;30.98;20.58;;;4.20;96.60;;;;;;6098202;23;20470;-76
2021/04/20 03:00:45;;;;;;;27.20;19.42;;;4.20;96.60;;;;;;6098041;23;20170;-76
2021/04/20 03:03:13;;;;;;;25.45;19.23;;;4.20;96.70;;;;;;6097406;23;20746;-76
2021/04/20 03:05:40;;;;;;;27.65;19.10;;;4.10;96.80;;;;;;6098473;23;20193;-77
2021/04/20 03:08:08;;;;;;;30.67;19.52;;;4.20;97.20;;;;;;6099395;23;20205;-76
2021/04/20 03:10:37;;;;;;;31.13;20.48;;;4.20;97.10;;;;;;6118256;23;20173;-75
2021/04/20 03:13:05;;;;;;;30.08;19.75;;;4.20;97.00;;;;;;6118522;23;20185;-76
2021/04/20 03:15:32;;;;;;;28.48;20.33;;;4.20;97.00;;;;;;6120226;23;20279;-78
2021/04/20 03:17:59;;;;;;;27.40;20.13;;;4.20;97.00;;;;;;6111296;23;20575;-76
2021/04/20 03:20:25;;;;;;;29.60;19.08;;;4.10;96.80;;;;;;6098421;23;20181;-75
2021/04/20 03:22:52;;;;;;;26.35;19.10;;;4.10;96.80;;;;;;6097167;23;20325;-76
2021/04/20 03:25:22;;;;;;;31.63;20.35;;;4.00;96.60;;;;;;6098373;23;20185;-76
2021/04/20 03:27:51;;;;;;;28.70;19.25;;;4.10;97.30;;;;;;6097539;23;20185;-76
2021/04/20 03:30:19;;;;;;;28.60;19.50;;;4.10;97.00;;;;;;6097829;23;20185;-75
2021/04/20 03:32:54;;;;;;;32.13;21.08;;;4.10;97.30;;;;;;6097058;23;20213;-76
2021/04/20 03:35:27;;;;;;;27.92;19.67;;;4.20;97.40;;;;;;6098295;23;20168;-77
2021/04/20 03:38:01;;;;;;;25.77;18.27;;;4.20;96.70;;;;;;6099494;23;20498;-78
2021/04/20 03:40:31;;;;;;;26.75;18.95;;;4.10;96.60;;;;;;6101944;23;20174;-78
2021/04/20 03:43:00;;;;;;;29.67;20.17;;;4.00;96.70;;;;;;6118553;23;20189;-79
2021/04/20 03:45:32;;;;;;;32.38;19.83;;;4.00;96.90;;;;;;6123854;23;20188;-77
2021/04/20 03:48:08;;;;;;;24.38;18.95;;;4.10;97.10;;;;;;6124803;23;20217;-76
2021/04/20 03:50:38;;;;;;;27.15;19.92;;;4.00;96.50;;;;;;6113905;23;20208;-75
2021/04/20 03:53:09;;;;;;;25.95;19.35;;;3.90;96.50;;;;;;6099536;23;20276;-75
2021/04/20 03:55:39;;;;;;;30.23;19.67;;;3.90;96.80;;;;;;6099535;23;20240;-76
2021/04/20 03:58:06;;;;;;;28.35;20.45;;;3.90;97.20;;;;;;6101619;23;20714;-75
2021/04/20 04:00:33;;;;;;;29.75;20.85;;;3.90;97.10;;;;;;6101512;23;20185;-77
2021/04/20 04:03:03;;;;;;;30.60;20.75;;;3.90;97.10;;;;;;6111265;23;20229;-76
2021/04/20 04:05:32;;;;;;;32.67;21.73;;;3.80;96.70;;;;;;6114507;23;20189;-77
2021/04/20 04:08:00;;;;;;;31.33;21.33;;;3.80;97.30;;;;;;6100769;23;20566;-77
2021/04/20 04:10:30;;;;;;;33.33;22.77;;;3.80;97.50;;;;;;6100281;23;20185;-76
2021/04/20 04:13:01;;;;;;;36.28;23.67;;;3.80;97.80;;;;;;6102982;23;20209;-77
2021/04/20 04:15:28;;;;;;;29.60;20.35;;;3.80;98.10;;;;;;6120867;23;20200;-76
2021/04/20 04:17:58;;;;;;;35.53;21.33;;;3.80;98.10;;;;;;6118948;23;20181;-76
2021/04/20 04:20:24;;;;;;;30.15;20.05;;;3.70;98.10;;;;;;6101066;23;20185;-76
2021/04/20 04:22:56;;;;;;;31.27;22.33;;;3.70;98.20;;;;;;6100331;23;20675;-76
2021/04/20 04:25:26;;;;;;;31.08;21.67;;;3.70;98.20;;;;;;6106101;23;20166;-75
2021/04/20 04:27:56;;;;;;;31.45;19.52;;;3.80;98.30;;;;;;6119906;23;20196;-76
2021/04/20 04:30:25;;;;;;;29.98;19.65;;;3.70;98.20;;;;;;6106644;23;20216;-77
2021/04/20 04:32:53;;;;;;;31.17;21.65;;;3.70;98.50;;;;;;6109785;23;20217;-75
2021/04/20 04:35:21;;;;;;;30.55;19.88;;;3.80;98.30;;;;;;6106769;23;20212;-77
2021/04/20 04:37:49;;;;;;;27.20;19.77;;;3.70;98.10;;;;;;6101629;23;20205;-76
2021/04/20 04:40:18;;;;;;;31.33;21.40;;;3.70;98.10;;;;;;6099046;23;20189;-75
2021/04/20 04:42:46;;;;;;;37.42;22.33;;;3.70;98.30;;;;;;6098592;23;20245;-76
2021/04/20 04:45:13;;;;;;;31.15;19.55;;;3.70;98.20;;;;;;6099255;23;20249;-76
2021/04/20 04:47:41;;;;;;;33.47;22.13;;;3.70;98.20;;;;;;6099906;23;20296;-76
2021/04/20 04:50:09;;;;;;;29.92;22.15;;;3.70;98.20;;;;;;6099107;23;20185;-75
2021/04/20 04:52:38;;;;;;;29.88;21.10;;;3.70;98.40;;;;;;6099173;23;20240;-75
2021/04/20 04:55:06;;;;;;;34.88;23.25;;;3.80;98.50;;;;;;6102430;23;20751;-77
2021/04/20 04:57:34;;;;;;;36.33;24.10;;;3.90;98.30;;;;;;6100727;23;20181;-75
2021/04/20 05:00:04;;;;;;;34.90;21.52;;;4.00;98.70;;;;;;6098859;23;20544;-76
2021/04/20 05:02:31;;;;;;;34.88;21.98;;;4.10;98.30;;;;;;6099362;23;20229;-76
2021/04/20 05:05:04;;;;;;;34.22;21.67;;;4.20;97.20;;;;;;6100116;23;20260;-77
2021/04/20 05:07:31;;;;;;;30.50;20.60;;;4.20;96.30;;;;;;6098957;23;20189;-76
2021/04/20 05:10:01;;;;;;;29.58;19.88;;;4.30;95.60;;;;;;6099952;23;20256;-76
2021/04/20 05:12:30;;;;;;;31.92;21.40;;;4.50;95.80;;;;;;6106351;23;20212;-76
2021/04/20 05:14:56;;;;;;;31.35;18.95;;;4.80;95.40;;;;;;6114722;23;20196;-76
2021/04/20 05:17:23;;;;;;;27.88;17.77;;;5.20;94.00;;;;;;6117998;23;20192;-76
2021/04/20 05:19:52;;;;;;;20.98;16.88;;;5.50;92.70;;;;;;6104013;23;20518;-75
2021/04/20 05:22:19;;;;;;;23.30;17.13;;;5.80;90.10;;;;;;6100679;23;20586;-76
2021/04/20 05:24:45;;;;;;;23.40;17.23;;;6.00;82.80;;;;;;6100265;23;20215;-76
2021/04/20 05:27:12;;;;;;;20.83;14.68;;;6.10;79.10;;;;;;6099771;23;20663;-76
2021/04/20 05:29:41;;;;;;;21.88;16.33;;;6.30;75.00;;;;;;6107184;23;20506;-75
2021/04/20 05:32:09;;;;;;;24.35;15.77;;;5.90;73.80;;;;;;6111590;23;20241;-77
2021/04/20 05:34:35;;;;;;;22.92;16.10;;;6.10;75.60;;;;;;6116069;23;20192;-76
2021/04/20 05:37:02;;;;;;;27.27;15.93;;;6.50;73.60;;;;;;6116924;23;20196;-77
2021/04/20 05:39:30;;;;;;;21.13;15.63;;;6.80;70.20;;;;;;6116355;23;20185;-76
2021/04/20 05:41:56;;;;;;;20.52;15.13;;;7.00;67.20;;;;;;6109364;23;20549;-76
2021/04/20 05:44:23;;;;;;;21.95;15.98;;;7.30;64.00;;;;;;6114059;23;20185;-77
2021/04/20 05:46:49;;;;;;;26.08;16.58;;;6.80;65.90;;;;;;6117144;23;20189;-75
2021/04/20 05:49:17;;;;;;;20.83;14.98;;;7.20;66.20;;;;;;6120158;23;20213;-76
2021/04/20 05:51:44;;;;;;;19.17;15.27;;;7.00;66.00;;;;;;6116504;23;20205;-77
2021/04/20 05:54:11;;;;;;;19.10;14.75;;;6.90;67.00;;;;;;6120736;23;20184;-76
2021/04/20 05:56:39;;;;;;;20.65;15.45;;;7.00;68.30;;;;;;6121506;23;20185;-76
2021/04/20 05:59:05;;;;;;;20.70;13.90;;;6.90;68.60;;;;;;6123115;23;20169;-76
2021/04/20 06:01:37;;;;;;;19.60;14.15;;;7.40;66.80;;;;;;6117072;23;20185;-77
2021/04/20 06:04:06;;;;;;;19.33;13.75;;;8.00;64.30;;;;;;6122507;23;20156;-79
2021/04/20 06:06:35;;;;;;;17.85;13.35;;;8.50;60.30;;;;;;6122842;23;20188;-78
2021/04/20 06:09:06;;;;;;;18.85;14.25;;;8.70;58.50;;;;;;6122313;23;20201;-76
2021/04/20 06:11:33;;;;;;;21.90;15.30;;;8.70;56.50;;;;;;6113979;23;20205;-77
2021/04/20 06:14:01;;;;;;;21.08;15.05;;;9.00;55.80;;;;;;6110587;23;20549;-77
2021/04/20 06:16:28;;;;;;;20.27;14.70;;;9.00;55.70;;;;;;6109212;23;20236;-77
2021/04/20 06:18:56;;;;;;;22.77;16.17;;;9.00;55.50;;;;;;6113024;23;20181;-76
2021/04/20 06:21:22;;;;;;;20.55;15.50;;;8.80;54.80;;;;;;6106051;23;20184;-78
2021/04/20 06:23:49;;;;;;;22.25;16.83;;;8.80;56.90;;;;;;6102643;23;20196;-78
2021/04/20 06:26:16;;;;;;;23.73;16.08;;;8.70;56.20;;;;;;6103626;23;20181;-76
2021/04/20 06:28:43;;;;;;;21.23;16.17;;;7.70;60.20;;;;;;6104219;23;20201;-77
2021/04/20 06:31:12;;;;;;;22.83;16.52;;;7.60;63.10;;;;;;6105454;23;20515;-77
2021/04/20 06:33:40;;;;;;;22.00;17.02;;;7.50;65.20;;;;;;6105972;23;20193;-78
2021/04/20 06:36:08;;;;;;;20.70;16.98;;;7.70;65.40;;;;;;6107789;23;20181;-77
2021/04/20 06:38:38;;;;;;;24.00;17.90;;;7.70;65.40;;;;;;6108612;23;20201;-78
2021/04/20 06:41:06;;;;;;;24.42;16.52;;;7.60;64.90;;;;;;6102844;23;20181;-77
2021/04/20 06:43:44;;;;;;;24.25;17.52;;;7.50;66.60;;;;;;6102916;23;20260;-77
2021/04/20 06:46:18;;;;;;;25.73;18.92;;;7.60;66.50;;;;;;6102951;23;20169;-76
2021/04/20 06:48:48;;;;;;;25.48;18.60;;;7.70;66.60;;;;;;6103003;23;20269;-76
2021/04/20 06:51:16;;;;;;;22.95;17.50;;;7.70;66.60;;;;;;6102156;23;20181;-76
2021/04/20 06:53:47;;;;;;;24.30;18.08;;;7.70;66.60;;;;;;6101757;23;20189;-76
2021/04/20 06:56:26;;;;;;;22.42;16.92;;;7.80;66.70;;;;;;6101491;23;20169;-77
2021/04/20 06:59:01;;;;;;;26.70;17.83;;;7.60;67.20;;;;;;6101314;23;20185;-76
2021/04/20 07:01:41;;;;;;;21.45;16.63;;;7.60;68.70;;;;;;6102546;23;20181;-76
2021/04/20 07:04:12;;;;;;;23.25;18.52;;;7.90;68.50;;;;;;6106056;23;20169;-76
2021/04/20 07:06:51;;;;;;;24.80;18.08;;;8.00;66.80;;;;;;6117594;23;20169;-77
2021/04/20 07:09:22;;;;;;;28.25;17.05;;;8.10;66.90;;;;;;6109953;23;20196;-77
2021/04/20 07:11:51;;;;;;;26.23;18.85;;;8.40;65.60;;;;;;6108279;23;20216;-77
2021/04/20 07:14:41;;;;;;;25.88;18.58;;;8.30;65.30;;;;;;6113644;23;20182;-77
2021/04/20 07:17:29;;;;;;;24.48;17.13;;;8.40;65.70;;;;;;6098606;23;20285;-78
2021/04/20 07:20:18;;;;;;;25.65;18.60;;;8.70;64.60;;;;;;6100291;23;20200;-76
2021/04/20 07:23:16;;;;;;;24.52;18.25;;;8.90;63.20;;;;;;6098772;23;20687;-77
2021/04/20 07:25:59;;;;;;;25.77;18.63;;;9.20;61.60;;;;;;6104651;23;20711;-77
2021/04/20 07:28:35;;;;;;;28.73;19.80;;;9.30;60.60;;;;;;6108062;23;20193;-79
2021/04/20 07:31:12;;;;;;;23.58;18.90;;;9.00;62.40;;;;;;6109316;23;20187;-78
2021/04/20 07:33:55;;;;;;;28.25;20.50;;;9.10;63.40;;;;;;6109119;23;20209;-80
2021/04/20 07:36:28;;;;;;;25.60;20.08;;;9.50;61.90;;;;;;6117816;23;20177;-79
2021/04/20 07:38:58;;;;;;;25.45;20.30;;;9.50;61.70;;;;;;6121077;23;20180;-77
2021/04/20 07:41:36;;;;;;;27.17;20.20;;;9.50;61.60;;;;;;6121694;23;20165;-78
2021/04/20 07:44:08;;;;;;;29.75;21.67;;;9.80;60.90;;;;;;6092821;23;20158;-79
2021/04/20 07:46:40;;;;;;;29.65;22.65;;;10.10;59.40;;;;;;6093088;23;20205;-80
2021/04/20 07:49:19;;;;;;;28.45;22.00;;;10.20;58.80;;;;;;6091510;23;20210;-79
2021/04/20 07:51:53;;;;;;;34.83;24.40;;;10.10;58.80;;;;;;6085174;23;20174;-78
2021/04/20 07:54:31;;;;;;;32.92;22.95;;;10.10;59.20;;;;;;6084099;23;20233;-81
2021/04/20 07:57:04;;;;;;;34.35;22.52;;;10.30;59.00;;;;;;6083145;23;20166;-79
2021/04/20 07:59:39;;;;;;;30.83;21.88;;;10.50;58.50;;;;;;6083370;23;20166;-80
2021/04/20 08:02:18;;;;;;;28.10;22.77;;;10.70;57.20;;;;;;6082250;23;20231;-79
2021/04/20 08:04:52;;;;;;;33.45;24.67;;;10.60;57.50;;;;;;6083199;23;20174;-81
2021/04/20 08:07:29;;;;;;;33.15;23.63;;;10.60;57.70;;;;;;6083709;23;20174;-80
2021/04/20 08:10:01;;;;;;;32.95;23.95;;;10.70;58.40;;;;;;6083024;23;20177;-81
2021/04/20 08:12:31;;;;;;;32.83;23.40;;;11.20;57.10;;;;;;6079438;23;20205;-79
2021/04/20 08:15:03;;;;;;;30.08;21.90;;;11.30;55.20;;;;;;6080448;23;20171;-79
2021/04/20 08:17:35;;;;;;;29.98;23.17;;;11.40;54.50;;;;;;6082784;23;20539;-79
2021/04/20 08:20:05;;;;;;;31.85;21.67;;;11.60;53.60;;;;;;6083723;23;20226;-79
2021/04/20 08:22:34;;;;;;;30.75;23.33;;;11.70;52.70;;;;;;6084118;23;20229;-80
2021/04/20 08:25:06;;;;;;;29.70;22.05;;;11.50;53.60;;;;;;6075613;23;20239;-79
2021/04/20 08:27:42;;;;;;;31.65;21.83;;;11.70;53.00;;;;;;6059677;23;20202;-82
2021/04/20 08:30:15;;;;;;;34.00;26.48;;;11.90;52.60;;;;;;6058157;23;20170;-79
2021/04/20 08:32:45;;;;;;;32.13;23.60;;;12.10;51.20;;;;;;6067763;23;20209;-80
2021/04/20 08:35:17;;;;;;;30.60;23.55;;;12.20;51.30;;;;;;6084551;23;20177;-79
2021/04/20 08:38:00;;;;;;;32.97;23.83;;;12.20;51.30;;;;;;6092777;23;20158;-76
2021/04/20 08:40:37;;;;;;;33.47;23.95;;;12.20;51.30;;;;;;6094339;23;20151;-76
2021/04/20 08:43:15;;;;;;;32.65;25.52;;;12.30;51.40;;;;;;6093411;23;20238;-79
2021/04/20 08:45:47;;;;;;;33.30;24.75;;;12.30;51.30;;;;;;6092777;23;20165;-79
2021/04/20 08:48:21;;;;;;;35.00;25.80;;;12.50;51.60;;;;;;6094649;23;20180;-77
2021/04/20 08:50:58;;;;;;;32.25;24.75;;;12.50;50.30;;;;;;6094486;23;20160;-79
2021/04/20 08:53:36;;;;;;;31.30;24.48;;;12.20;51.30;;;;;;6091889;23;20201;-78
2021/04/20 08:56:18;;;;;;;29.70;24.63;;;12.60;51.00;;;;;;6086530;23;20189;-79
2021/04/20 08:59:17;;;;;;;32.58;23.98;;;12.90;49.10;;;;;;6086150;23;20167;-80
2021/04/20 09:01:54;;;;;;;28.98;21.67;;;12.90;48.90;;;;;;6087826;23;20169;-81
2021/04/20 09:05:08;;;;;;;30.83;22.08;;;13.10;47.80;;;;;;6087351;23;20189;-80
2021/04/20 09:07:52;;;;;;;28.88;22.40;;;13.20;46.80;;;;;;6080763;23;20206;-80
2021/04/20 09:10:22;;;;;;;31.50;23.75;;;13.20;46.90;;;;;;6091604;23;20170;-77
2021/04/20 09:12:54;;;;;;;26.73;21.25;;;13.10;47.60;;;;;;6089073;23;20206;-77
2021/04/20 09:15:21;;;;;;;30.30;23.17;;;13.40;46.90;;;;;;6088345;23;20218;-79
2021/04/20 09:17:50;;;;;;;28.40;22.30;;;13.60;45.40;;;;;;6087693;23;20182;-78
2021/04/20 09:20:24;;;;;;;26.88;21.27;;;13.50;44.80;;;;;;6089352;23;20237;-79
2021/04/20 09:22:57;;;;;;;26.38;22.17;;;13.20;45.00;;;;;;6092573;23;20194;-77
2021/04/20 09:25:26;;;;;;;25.65;19.65;;;13.40;44.80;;;;;;6091485;23;20154;-79
2021/04/20 09:28:01;;;;;;;26.67;21.02;;;13.40;42.90;;;;;;6088951;23;20210;-76
2021/04/20 09:30:33;;;;;;;25.35;20.50;;;13.40;44.30;;;;;;6091150;23;20170;-79
2021/04/20 09:33:07;;;;;;;25.17;20.35;;;13.60;42.90;;;;;;6088846;23;20218;-79
2021/04/20 09:35:34;;;;;;;27.35;20.88;;;13.50;43.40;;;;;;6090823;23;20162;-79
2021/04/20 09:38:03;;;;;;;26.60;21.30;;;13.40;43.80;;;;;;6088407;23;20633;-80
2021/04/20 09:40:31;;;;;;;26.73;20.73;;;13.80;43.00;;;;;;6086105;23;20201;-78
2021/04/20 09:43:12;;;;;;;25.98;20.55;;;13.90;42.90;;;;;;6086407;23;20281;-79
2021/04/20 09:45:45;;;;;;;26.35;20.40;;;14.00;43.20;;;;;;6087427;23;20170;-80
2021/04/20 09:48:20;;;;;;;25.55;20.20;;;14.40;41.80;;;;;;6087779;23;20186;-82
2021/04/20 09:50:57;;;;;;;28.13;20.63;;;14.40;41.50;;;;;;6084601;23;20209;-79
2021/04/20 09:53:33;;;;;;;23.65;19.08;;;14.30;40.60;;;;;;6088861;23;20185;-80
2021/04/20 09:56:08;;;;;;;25.42;19.60;;;14.50;40.10;;;;;;6087803;23;20174;-79
2021/04/20 09:58:36;;;;;;;24.48;19.40;;;14.80;39.80;;;;;;6089791;23;20172;-81
2021/04/20 10:01:13;;;;;;;21.83;18.00;;;14.40;39.70;;;;;;6089955;23;20197;-79
2021/04/20 10:03:48;;;;;;;21.88;18.90;;;14.70;39.70;;;;;;6091596;23;20201;-79
2021/04/20 10:06:38;;;;;;;26.30;21.23;;;14.80;39.80;;;;;;6093795;23;20161;-81
2021/04/20 10:09:23;;;;;;;23.50;20.48;;;14.50;40.00;;;;;;6093187;23;20194;-80
2021/04/20 10:11:58;;;;;;;25.80;19.67;;;14.40;40.60;;;;;;6093450;23;20226;-84
2021/04/20 10:14:29;;;;;;;23.03;18.73;;;14.80;39.00;;;;;;6092405;23;20154;-81
2021/04/20 10:17:05;;;;;;;26.98;19.88;;;15.10;37.90;;;;;;6094325;23;20394;-79
2021/04/20 10:19:38;;;;;;;23.33;18.90;;;15.40;37.80;;;;;;6093564;23;20181;-80
2021/04/20 10:22:22;;;;;;;26.15;20.23;;;15.50;36.80;;;;;;6092828;23;20418;-81
2021/04/20 10:25:03;;;;;;;24.35;21.25;;;14.80;38.50;;;;;;6088742;23;20157;-80
2021/04/20 10:27:30;;;;;;;26.03;19.60;;;14.80;38.40;;;;;;6089575;23;20177;-79
2021/04/20 10:30:02;;;;;;;19.45;15.18;;;14.90;38.90;;;;;;6092890;23;20518;-80
2021/04/20 10:32:31;;;;;;;20.27;16.40;;;15.10;35.00;;;;;;6093322;23;20232;-80
2021/04/20 10:34:59;;;;;;;18.98;15.85;;;15.10;36.10;;;;;;6093932;23;20243;-81
2021/04/20 10:37:34;;;;;;;18.73;14.73;;;15.50;35.80;;;;;;6093281;23;20194;-82
2021/04/20 10:40:06;;;;;;;15.27;12.88;;;15.60;34.70;;;;;;6092935;23;20396;-79
2021/04/20 10:42:34;;;;;;;19.25;14.43;;;15.10;34.20;;;;;;6093338;23;20249;-82
2021/04/20 10:45:01;;;;;;;17.48;13.43;;;15.00;34.10;;;;;;6093720;23;20182;-81
2021/04/20 10:47:30;;;;;;;15.47;13.20;;;15.10;34.20;;;;;;6093826;23;20162;-80
2021/04/20 10:49:59;;;;;;;16.30;12.90;;;15.40;34.20;;;;;;6094226;23;20380;-81
2021/04/20 10:52:31;;;;;;;16.25;13.15;;;15.70;33.10;;;;;;6094163;23;20190;-80
2021/04/20 10:55:06;;;;;;;14.82;12.43;;;15.60;32.70;;;;;;6094042;23;20166;-80
2021/04/20 10:57:33;;;;;;;16.77;11.88;;;15.20;33.40;;;;;;6094217;23;20173;-81
2021/04/20 11:00:02;;;;;;;13.18;11.38;;;15.30;32.70;;;;;;6092533;23;20186;-79
2021/04/20 11:02:34;;;;;;;12.65;10.48;;;15.30;31.80;;;;;;6091355;23;20206;-80
2021/04/20 11:05:02;;;;;;;15.40;11.80;;;15.20;32.90;;;;;;6090568;23;20206;-80
2021/04/20 11:07:33;;;;;;;13.60;10.97;;;15.70;31.60;;;;;;6090663;23;20422;-82
2021/04/20 11:10:04;;;;;;;16.70;13.05;;;16.10;31.40;;;;;;6090780;23;20379;-80
2021/04/20 11:12:31;;;;;;;18.05;14.98;;;15.80;32.10;;;;;;6089936;23;20210;-79
2021/04/20 11:14:58;;;;;;;13.90;10.80;;;15.70;32.80;;;;;;6090275;23;20185;-79
2021/04/20 11:17:29;;;;;;;14.90;13.07;;;15.60;31.40;;;;;;6086096;23;20376;-79
2021/04/20 11:20:02;;;;;;;16.50;13.70;;;15.80;32.70;;;;;;6085243;23;20414;-79
2021/04/20 11:22:34;;;;;;;13.95;11.25;;;15.80;32.80;;;;;;6081636;23;20438;-81
2021/04/20 11:25:06;;;;;;;14.50;12.40;;;16.00;31.00;;;;;;6078129;23;20246;-79
2021/04/20 11:27:35;;;;;;;17.40;11.80;;;16.30;30.30;;;;;;6076777;23;20357;-79
2021/04/20 11:30:08;;;;;;;12.57;10.73;;;16.30;30.60;;;;;;6072378;23;20422;-79
2021/04/20 11:32:37;;;;;;;13.45;11.68;;;16.40;30.20;;;;;;6073265;23;20447;-81
2021/04/20 11:35:12;;;;;;;14.88;12.48;;;15.70;31.00;;;;;;6080296;23;20220;-81
2021/04/20 11:37:39;;;;;;;12.43;11.13;;;15.50;31.90;;;;;;6073539;23;20181;-80
2021/04/20 11:40:12;;;;;;;17.23;12.27;;;15.90;31.60;;;;;;6072495;23;20193;-78
2021/04/20 11:42:42;;;;;;;15.60;13.17;;;16.50;31.40;;;;;;6075497;23;20458;-79
2021/04/20 11:45:14;;;;;;;13.20;11.30;;;16.80;29.90;;;;;;6075952;23;20411;-80
2021/04/20 11:47:55;;;;;;;14.97;11.80;;;16.80;29.10;;;;;;6077965;23;20394;-80
2021/04/20 11:50:23;;;;;;;13.47;10.53;;;16.90;28.80;;;;;;6077762;23;20687;-80
2021/04/20 11:52:57;;;;;;;12.87;10.83;;;16.90;29.20;;;;;;6077797;23;20435;-79
2021/04/20 11:55:36;;;;;;;13.00;10.90;;;17.30;28.50;;;;;;6076260;23;20663;-80
2021/04/20 11:58:08;;;;;;;12.07;10.80;;;17.20;28.30;;;;;;6078437;23;20852;-80
2021/04/20 12:00:38;;;;;;;11.47;10.27;;;17.30;28.20;;;;;;6080933;23;20377;-79
2021/04/20 12:03:23;;;;;;;14.23;11.67;;;17.60;28.30;;;;;;6076968;23;20798;-79
2021/04/20 12:05:54;;;;;;;14.17;12.40;;;17.00;28.50;;;;;;6077397;23;20392;-80
2021/04/20 12:08:24;;;;;;;11.60;10.20;;;16.40;29.30;;;;;;6075744;23;20423;-79
2021/04/20 12:10:53;;;;;;;14.27;11.83;;;16.70;29.30;;;;;;6074290;23;20410;-79
2021/04/20 12:13:24;;;;;;;13.90;10.10;;;17.10;28.20;;;;;;6075234;23;20416;-78
2021/04/20 12:15:57;;;;;;;12.53;11.23;;;17.00;28.70;;;;;;6076789;23;20425;-78
2021/04/20 12:18:25;;;;;;;12.80;10.67;;;17.20;28.10;;;;;;6086674;23;20401;-79
2021/04/20 12:20:54;;;;;;;12.20;11.00;;;17.30;28.10;;;;;;6089132;23;20448;-81
2021/04/20 12:23:23;;;;;;;11.73;10.60;;;17.60;27.20;;;;;;6090237;23;20756;-78
2021/04/20 12:25:51;;;;;;;12.80;11.50;;;18.00;27.50;;;;;;6093254;23;20384;-78
2021/04/20 12:28:20;;;;;;;11.33;9.60;;;17.90;27.40;;;;;;6085802;23;20473;-81
2021/04/20 12:30:48;;;;;;;10.57;8.87;;;17.60;27.20;;;;;;6080170;23;20397;-80
2021/04/20 12:33:26;;;;;;;12.30;10.73;;;17.70;27.30;;;;;;6076102;23;20432;-79
2021/04/20 12:35:53;;;;;;;11.40;10.20;;;17.70;27.20;;;;;;6073572;23;20460;-78
2021/04/20 12:38:23;;;;;;;13.50;11.07;;;17.90;27.40;;;;;;6071911;23;20418;-78
2021/04/20 12:41:01;;;;;;;11.23;9.70;;;17.70;27.30;;;;;;6072323;23;20369;-80
2021/04/20 12:43:31;;;;;;;10.37;9.00;;;16.90;27.50;;;;;;6071219;23;20405;-79
2021/04/20 12:46:05;;;;;;;11.53;10.30;;;17.00;27.30;;;;;;6073935;23;20418;-79
2021/04/20 12:48:32;;;;;;;10.10;8.83;;;17.20;27.30;;;;;;6072792;23;20408;-77
2021/04/20 12:51:00;;;;;;;10.30;9.30;;;17.20;26.90;;;;;;6076360;23;20425;-78